createdAt,value
2023-12-27T00:00:01.123Z,101796.64
2023-12-27T00:00:35.030Z,101798.21
2023-12-27T00:01:28.139Z,101793.04
2023-12-27T00:02:01.111Z,101789.65
2023-12-27T00:02:34.181Z,101793.54
2023-12-27T00:03:07.234Z,101794.77
2023-12-27T00:03:40.432Z,101794.03
2023-12-27T00:04:13.773Z,101790.29
2023-12-27T00:04:46.857Z,101797.71
2023-12-27T00:05:19.747Z,101791.70
2023-12-27T00:05:52.811Z,101791.86
2023-12-27T00:06:25.798Z,101793.27
2023-12-27T00:06:58.962Z,101787.95
2023-12-27T00:07:32.058Z,101789.38
2023-12-27T00:08:05.013Z,101786.18
2023-12-27T00:08:38.824Z,101785.28
2023-12-27T00:09:12.085Z,101788.65
2023-12-27T00:09:45.298Z,101792.89
2023-12-27T00:10:18.315Z,101793.24
2023-12-27T00:10:51.332Z,101790.95
2023-12-27T00:11:24.337Z,101794.16
2023-12-27T00:11:57.519Z,101792.44
2023-12-27T00:12:30.640Z,101799.19
2023-12-27T00:13:04.018Z,101795.49
2023-12-27T00:13:37.161Z,101791.42
2023-12-27T00:14:10.005Z,101792.34
2023-12-27T00:14:42.853Z,101790.39
2023-12-27T00:15:15.990Z,101793.73
2023-12-27T00:15:49.020Z,101794.61
2023-12-27T00:16:21.986Z,101796.38
2023-12-27T00:16:55.010Z,101801.67
2023-12-27T00:17:28.025Z,101800.23
2023-12-27T00:18:01.702Z,101796.16
2023-12-27T00:18:34.971Z,101792.77
2023-12-27T00:19:08.423Z,101794.36
2023-12-27T00:19:41.578Z,101792.09
2023-12-27T00:20:14.853Z,101788.56
2023-12-27T00:20:49.122Z,101788.40
2023-12-27T00:21:22.297Z,101789.12
2023-12-27T00:21:55.295Z,101786.66
2023-12-27T00:22:28.381Z,101783.15
2023-12-27T00:23:01.337Z,101787.77
2023-12-27T00:23:34.318Z,101782.28
2023-12-27T00:24:07.618Z,101783.72
2023-12-27T00:24:40.659Z,101784.83
2023-12-27T00:25:13.703Z,101782.38
2023-12-27T00:25:46.644Z,101783.48
2023-12-27T00:26:19.720Z,101780.11
2023-12-27T00:26:53.725Z,101775.00
2023-12-27T00:27:26.705Z,101781.02
2023-12-27T00:27:59.918Z,101778.19
2023-12-27T00:28:33.106Z,101780.46
2023-12-27T00:29:07.180Z,101778.36
2023-12-27T00:29:40.242Z,101775.69
2023-12-27T00:30:13.521Z,101779.79
2023-12-27T00:30:50.354Z,101778.18
2023-12-27T00:31:23.679Z,101775.52
2023-12-27T00:31:56.718Z,101777.48
2023-12-27T00:32:29.755Z,101779.24
2023-12-27T00:33:03.130Z,101777.82
2023-12-27T00:33:36.792Z,101779.75
2023-12-27T00:34:10.064Z,101777.60
2023-12-27T00:34:43.256Z,101774.77
2023-12-27T00:35:16.369Z,101783.98
2023-12-27T00:35:50.018Z,101786.61
2023-12-27T00:36:29.428Z,101786.98
2023-12-27T00:37:03.067Z,101785.58
2023-12-27T00:37:36.243Z,101782.05
2023-12-27T00:38:09.370Z,101782.23
2023-12-27T00:38:42.393Z,101782.79
2023-12-27T00:39:16.171Z,101780.67
2023-12-27T00:39:49.304Z,101781.07
2023-12-27T00:40:23.452Z,101784.42
2023-12-27T00:40:56.715Z,101786.41
2023-12-27T00:41:30.055Z,101783.23
2023-12-27T00:42:03.299Z,101783.42
2023-12-27T00:42:36.458Z,101783.98
2023-12-27T00:43:09.348Z,101782.38
2023-12-27T00:43:43.624Z,101785.20
2023-12-27T00:44:16.578Z,101784.14
2023-12-27T00:44:51.943Z,101788.75
2023-12-27T00:45:24.981Z,101786.61
2023-12-27T00:45:58.994Z,101786.96
2023-12-27T00:46:32.230Z,101784.11
2023-12-27T00:47:05.270Z,101784.43
2023-12-27T00:47:38.383Z,101784.42
2023-12-27T00:48:11.401Z,101780.89
2023-12-27T00:48:44.481Z,101781.77
2023-12-27T00:49:18.165Z,101784.59
2023-12-27T00:49:51.319Z,101782.28
2023-12-27T00:50:24.281Z,101779.82
2023-12-27T00:50:58.598Z,101782.10
2023-12-27T00:51:31.696Z,101778.39
2023-12-27T00:52:04.749Z,101783.91
2023-12-27T00:52:38.076Z,101780.91
2023-12-27T00:53:11.040Z,101778.95
2023-12-27T00:53:44.007Z,101777.39
2023-12-27T00:54:17.166Z,101780.04
2023-12-27T00:54:50.113Z,101779.66
2023-12-27T00:55:23.126Z,101781.10
2023-12-27T00:55:56.149Z,101780.21
2023-12-27T00:56:29.097Z,101776.50
2023-12-27T00:57:02.149Z,101773.33
2023-12-27T00:57:35.151Z,101775.29
2023-12-27T00:58:08.227Z,101772.98
2023-12-27T00:58:41.476Z,101777.60
2023-12-27T00:59:14.498Z,101779.71
2023-12-27T00:59:47.454Z,101783.96
2023-12-27T01:00:21.069Z,101778.11
2023-12-27T01:00:54.111Z,101773.14
2023-12-27T01:01:27.331Z,101772.43
2023-12-27T01:02:00.489Z,101769.95
2023-12-27T01:02:36.257Z,101772.77
2023-12-27T01:03:09.615Z,101770.64
2023-12-27T01:03:43.086Z,101771.70
2023-12-27T01:04:16.540Z,101774.71
2023-12-27T01:04:50.309Z,101768.69
2023-12-27T01:05:23.334Z,101772.59
2023-12-27T01:05:56.304Z,101773.48
2023-12-27T01:06:29.314Z,101775.27
2023-12-27T01:07:02.367Z,101772.26
2023-12-27T01:07:35.309Z,101772.26
2023-12-27T01:08:08.878Z,101771.02
2023-12-27T01:08:43.217Z,101766.81
2023-12-27T01:09:16.145Z,101765.93
2023-12-27T01:09:49.910Z,101765.94
2023-12-27T01:10:22.880Z,101767.55
2023-12-27T01:10:56.162Z,101764.04
2023-12-27T01:11:29.284Z,101760.69
2023-12-27T01:12:02.209Z,101757.88
2023-12-27T01:12:35.295Z,101753.27
2023-12-27T01:13:08.864Z,101742.83
2023-12-27T01:13:41.921Z,101744.09
2023-12-27T01:14:14.804Z,101741.07
2023-12-27T01:14:47.699Z,101739.30
2023-12-27T01:15:20.824Z,101739.81
2023-12-27T01:15:53.850Z,101741.77
2023-12-27T01:16:26.864Z,101741.21
2023-12-27T01:16:59.808Z,101741.73
2023-12-27T01:17:32.697Z,101740.17
2023-12-27T01:18:07.008Z,101740.15
2023-12-27T01:18:40.134Z,101742.62
2023-12-27T01:19:13.313Z,101739.46
2023-12-27T01:19:46.284Z,101740.69
2023-12-27T01:20:20.485Z,101734.29
2023-12-27T01:20:53.601Z,101738.88
2023-12-27T01:21:26.751Z,101741.67
2023-12-27T01:21:59.708Z,101744.70
2023-12-27T01:22:32.677Z,101739.52
2023-12-27T01:23:05.661Z,101739.53
2023-12-27T01:23:39.340Z,101735.61
2023-12-27T01:24:12.379Z,101738.40
2023-12-27T01:24:46.171Z,101743.71
2023-12-27T01:25:20.161Z,101746.70
2023-12-27T01:25:53.253Z,101745.80
2023-12-27T01:26:26.241Z,101745.11
2023-12-27T01:26:59.437Z,101749.36
2023-12-27T01:27:32.478Z,101740.18
2023-12-27T01:28:05.466Z,101734.55
2023-12-27T01:28:38.503Z,101728.70
2023-12-27T01:29:11.388Z,101725.71
2023-12-27T01:29:44.227Z,101719.20
2023-12-27T01:30:17.230Z,101715.64
2023-12-27T01:30:50.396Z,101715.80
2023-12-27T01:31:23.362Z,101719.16
2023-12-27T01:31:57.927Z,101716.32
2023-12-27T01:32:30.972Z,101714.20
2023-12-27T01:33:04.437Z,101716.15
2023-12-27T01:33:37.972Z,101715.98
2023-12-27T01:34:16.077Z,101715.45
2023-12-27T01:34:55.936Z,101713.70
2023-12-27T01:35:29.148Z,101716.56
2023-12-27T01:36:09.403Z,101715.70
2023-12-27T01:36:42.559Z,101713.92
2023-12-27T01:37:15.763Z,101711.63
2023-12-27T01:37:48.787Z,101715.02
2023-12-27T01:38:21.743Z,101710.06
2023-12-27T01:38:54.835Z,101707.95
2023-12-27T01:39:27.977Z,101710.38
2023-12-27T01:40:00.922Z,101707.02
2023-12-27T01:40:34.094Z,101704.71
2023-12-27T01:41:07.108Z,101700.43
2023-12-27T01:41:40.167Z,101702.21
2023-12-27T01:42:13.346Z,101698.50
2023-12-27T01:42:46.414Z,101697.63
2023-12-27T01:43:19.381Z,101698.52
2023-12-27T01:43:52.549Z,101699.93
2023-12-27T01:44:25.425Z,101694.80
2023-12-27T01:44:58.290Z,101695.71
2023-12-27T01:45:31.460Z,101691.80
2023-12-27T01:46:04.588Z,101693.06
2023-12-27T01:46:38.345Z,101700.67
2023-12-27T01:47:14.500Z,101701.05
2023-12-27T01:47:48.654Z,101700.16
2023-12-27T01:48:22.495Z,101702.30
2023-12-27T01:48:56.156Z,101709.23
2023-12-27T01:49:29.462Z,101704.28
2023-12-27T01:50:02.858Z,101703.61
2023-12-27T01:50:36.877Z,101703.98
2023-12-27T01:51:10.851Z,101704.19
2023-12-27T01:51:44.222Z,101702.77
2023-12-27T01:52:17.530Z,101704.40
2023-12-27T01:52:50.914Z,101704.78
2023-12-27T01:53:25.184Z,101703.56
2023-12-27T01:54:02.341Z,101698.09
2023-12-27T01:54:35.475Z,101697.39
2023-12-27T01:55:10.784Z,101694.77
2023-12-27T01:55:45.011Z,101694.45
2023-12-27T01:56:18.078Z,101694.83
2023-12-27T01:56:51.409Z,101691.32
2023-12-27T01:57:24.730Z,101693.60
2023-12-27T01:57:58.115Z,101692.17
2023-12-27T01:58:31.799Z,101693.77
2023-12-27T01:59:04.933Z,101695.35
2023-12-27T01:59:38.005Z,101695.17
2023-12-27T02:01:19.691Z,101694.67
2023-12-27T02:01:55.379Z,101692.20
2023-12-27T02:02:31.341Z,101691.84
2023-12-27T02:03:05.612Z,101691.83
2023-12-27T02:03:39.023Z,101693.08
2023-12-27T02:04:12.668Z,101693.10
2023-12-27T02:04:46.029Z,101691.34
2023-12-27T02:05:20.787Z,101688.89
2023-12-27T02:05:57.784Z,101691.20
2023-12-27T02:06:32.138Z,101689.81
2023-12-27T02:07:14.836Z,101686.27
2023-12-27T02:07:58.360Z,101680.98
2023-12-27T02:08:32.179Z,101684.16
2023-12-27T02:09:08.911Z,101682.23
2023-12-27T02:09:42.899Z,101682.05
2023-12-27T02:10:16.358Z,101681.17
2023-12-27T02:10:49.973Z,101678.69
2023-12-27T02:11:25.961Z,101679.77
2023-12-27T02:11:59.815Z,101682.08
2023-12-27T02:12:33.548Z,101682.98
2023-12-27T02:13:08.104Z,101678.02
2023-12-27T02:13:44.242Z,101684.20
2023-12-27T02:14:17.522Z,101681.54
2023-12-27T02:14:50.818Z,101682.79
2023-12-27T02:15:24.066Z,101680.99
2023-12-27T02:15:57.782Z,101677.99
2023-12-27T02:16:36.234Z,101677.81
2023-12-27T02:17:10.006Z,101679.77
2023-12-27T02:17:45.468Z,101679.61
2023-12-27T02:18:20.673Z,101678.05
2023-12-27T02:18:55.521Z,101680.52
2023-12-27T02:19:31.659Z,101675.02
2023-12-27T02:20:05.667Z,101670.70
2023-12-27T02:20:41.105Z,101672.70
2023-12-27T02:21:14.389Z,101670.76
2023-12-27T02:21:53.581Z,101670.75
2023-12-27T02:22:29.673Z,101669.15
2023-12-27T02:23:07.505Z,101670.08
2023-12-27T02:23:43.393Z,101667.77
2023-12-27T02:24:19.899Z,101660.52
2023-12-27T02:24:57.923Z,101664.80
2023-12-27T02:25:31.348Z,101665.50
2023-12-27T02:26:06.220Z,101662.70
2023-12-27T02:26:39.478Z,101663.38
2023-12-27T02:27:19.608Z,101662.15
2023-12-27T02:27:53.001Z,101658.27
2023-12-27T02:28:26.289Z,101660.92
2023-12-27T02:28:59.758Z,101657.20
2023-12-27T02:29:35.894Z,101654.02
2023-12-27T02:30:17.993Z,101653.33
2023-12-27T02:30:55.586Z,101653.73
2023-12-27T02:31:28.810Z,101652.33
2023-12-27T02:32:02.168Z,101650.20
2023-12-27T02:32:37.779Z,101648.77
2023-12-27T02:33:11.510Z,101650.54
2023-12-27T02:33:53.481Z,101650.17
2023-12-27T02:34:33.428Z,101647.66
2023-12-27T02:35:07.873Z,101643.21
2023-12-27T02:35:41.778Z,101644.08
2023-12-27T02:36:14.947Z,101642.83
2023-12-27T02:36:48.247Z,101637.67
2023-12-27T02:37:24.472Z,101639.06
2023-12-27T02:37:58.719Z,101638.34
2023-12-27T02:38:32.138Z,101642.41
2023-12-27T02:39:05.459Z,101639.37
2023-12-27T02:39:38.708Z,101640.09
2023-12-27T02:40:13.719Z,101639.21
2023-12-27T02:40:48.279Z,101642.41
2023-12-27T02:41:21.419Z,101639.75
2023-12-27T02:41:54.835Z,101634.65
2023-12-27T02:42:28.258Z,101642.80
2023-12-27T02:43:01.548Z,101637.34
2023-12-27T02:43:37.061Z,101634.70
2023-12-27T02:44:10.447Z,101635.79
2023-12-27T02:44:43.846Z,101635.08
2023-12-27T02:45:17.542Z,101629.60
2023-12-27T02:46:03.114Z,101630.71
2023-12-27T02:46:36.592Z,101628.62
2023-12-27T02:47:12.567Z,101628.25
2023-12-27T02:47:48.360Z,101626.00
2023-12-27T02:48:22.211Z,101628.33
2023-12-27T02:48:55.638Z,101624.81
2023-12-27T02:49:29.413Z,101623.59
2023-12-27T02:50:05.681Z,101622.52
2023-12-27T02:50:45.887Z,101624.49
2023-12-27T02:51:19.591Z,101616.69
2023-12-27T02:51:55.849Z,101619.34
2023-12-27T02:52:31.467Z,101618.45
2023-12-27T02:53:16.226Z,101616.48
2023-12-27T02:53:49.569Z,101617.91
2023-12-27T02:54:22.957Z,101621.82
2023-12-27T02:54:58.228Z,101617.73
2023-12-27T02:55:31.724Z,101619.15
2023-12-27T02:56:05.654Z,101617.36
2023-12-27T02:56:43.722Z,101615.59
2023-12-27T02:57:19.543Z,101612.92
2023-12-27T02:57:56.631Z,101613.10
2023-12-27T02:58:34.942Z,101611.88
2023-12-27T02:59:12.875Z,101607.63
2023-12-27T02:59:54.795Z,101608.52
2023-12-27T03:00:32.015Z,101611.34
2023-12-27T03:01:08.462Z,101602.83
2023-12-27T03:01:41.929Z,101603.89
2023-12-27T03:02:15.489Z,101606.91
2023-12-27T03:02:52.321Z,101597.70
2023-12-27T03:03:32.368Z,101602.14
2023-12-27T03:04:08.582Z,101599.30
2023-12-27T03:04:42.135Z,101598.77
2023-12-27T03:05:19.602Z,101606.04
2023-12-27T03:05:53.064Z,101598.05
2023-12-27T03:06:26.578Z,101598.95
2023-12-27T03:07:04.271Z,101595.76
2023-12-27T03:07:37.800Z,101599.33
2023-12-27T03:08:13.097Z,101596.51
2023-12-27T03:08:54.644Z,101599.53
2023-12-27T03:09:28.033Z,101600.26
2023-12-27T03:10:06.275Z,101600.96
2023-12-27T03:10:44.155Z,101603.11
2023-12-27T03:11:20.175Z,101597.98
2023-12-27T03:11:53.829Z,101595.67
2023-12-27T03:12:38.986Z,101600.29
2023-12-27T03:13:14.466Z,101591.08
2023-12-27T03:13:47.785Z,101588.60
2023-12-27T03:14:21.293Z,101581.15
2023-12-27T03:14:59.638Z,101572.48
2023-12-27T03:15:33.036Z,101573.73
2023-12-27T03:16:07.339Z,101570.70
2023-12-27T03:16:41.574Z,101574.95
2023-12-27T03:17:15.011Z,101573.34
2023-12-27T03:17:48.580Z,101579.52
2023-12-27T03:18:24.794Z,101577.40
2023-12-27T03:18:59.100Z,101581.46
2023-12-27T03:19:34.522Z,101576.16
2023-12-27T03:20:09.089Z,101572.95
2023-12-27T03:20:43.321Z,101579.33
2023-12-27T03:21:17.930Z,101574.91
2023-12-27T03:21:51.396Z,101571.73
2023-12-27T03:22:24.824Z,101578.48
2023-12-27T03:23:01.576Z,101576.20
2023-12-27T03:23:35.203Z,101573.04
2023-12-27T03:24:09.788Z,101566.13
2023-12-27T03:24:43.822Z,101570.77
2023-12-27T03:25:19.551Z,101572.02
2023-12-27T03:25:58.695Z,101572.59
2023-12-27T03:26:32.831Z,101573.33
2023-12-27T03:27:09.458Z,101574.75
2023-12-27T03:27:42.800Z,101575.12
2023-12-27T03:28:16.380Z,101573.88
2023-12-27T03:28:50.068Z,101572.66
2023-12-27T03:29:23.591Z,101575.67
2023-12-27T03:29:57.029Z,101569.30
2023-12-27T03:30:36.861Z,101572.32
2023-12-27T03:31:10.727Z,101578.35
2023-12-27T03:31:45.646Z,101580.66
2023-12-27T03:32:19.045Z,101573.38
2023-12-27T03:32:57.005Z,101572.48
2023-12-27T03:33:40.224Z,101576.91
2023-12-27T03:34:13.699Z,101568.40
2023-12-27T03:34:51.815Z,101572.27
2023-12-27T03:35:26.461Z,101565.20
2023-12-27T03:36:00.027Z,101566.98
2023-12-27T03:36:35.206Z,101563.44
2023-12-27T03:37:21.374Z,101557.77
2023-12-27T03:37:57.294Z,101556.90
2023-12-27T03:38:30.772Z,101557.44
2023-12-27T03:39:04.337Z,101548.73
2023-12-27T03:39:38.041Z,101547.55
2023-12-27T03:40:12.007Z,101550.73
2023-12-27T03:40:46.501Z,101542.20
2023-12-27T03:41:19.900Z,101547.75
2023-12-27T03:41:54.169Z,101544.92
2023-12-27T03:42:27.536Z,101541.56
2023-12-27T03:43:04.230Z,101542.80
2023-12-27T03:43:39.963Z,101542.63
2023-12-27T03:44:13.442Z,101536.08
2023-12-27T03:44:57.075Z,101539.80
2023-12-27T03:45:32.657Z,101535.02
2023-12-27T03:46:06.881Z,101532.54
2023-12-27T03:46:42.501Z,101535.38
2023-12-27T03:47:22.009Z,101535.38
2023-12-27T03:47:57.968Z,101531.64
2023-12-27T03:48:34.199Z,101533.41
2023-12-27T03:49:10.529Z,101531.10
2023-12-27T03:49:48.315Z,101530.73
2023-12-27T03:50:25.730Z,101526.48
2023-12-27T03:50:59.278Z,101531.42
2023-12-27T03:51:34.383Z,101529.86
2023-12-27T03:52:10.359Z,101533.40
2023-12-27T03:52:45.360Z,101530.93
2023-12-27T03:53:18.709Z,101533.41
2023-12-27T03:53:52.106Z,101535.02
2023-12-27T03:54:25.643Z,101525.65
2023-12-27T03:55:00.873Z,101526.02
2023-12-27T03:55:34.316Z,101528.35
2023-12-27T03:56:11.967Z,101526.42
2023-12-27T03:56:46.489Z,101525.91
2023-12-27T03:57:20.401Z,101520.27
2023-12-27T03:57:54.778Z,101528.91
2023-12-27T03:58:30.705Z,101525.73
2023-12-27T03:59:07.435Z,101528.05
2023-12-27T03:59:43.909Z,101527.36
2023-12-27T04:00:23.893Z,101530.91
2023-12-27T04:00:57.535Z,101532.68
2023-12-27T04:01:30.996Z,101533.58
2023-12-27T04:02:06.837Z,101539.95
2023-12-27T04:02:43.246Z,101531.46
2023-12-27T04:03:25.935Z,101534.13
2023-12-27T04:03:59.554Z,101533.75
2023-12-27T04:04:33.136Z,101533.23
2023-12-27T04:05:09.044Z,101533.39
2023-12-27T04:05:45.445Z,101531.24
2023-12-27T04:06:20.212Z,101527.17
2023-12-27T04:06:54.825Z,101537.60
2023-12-27T04:07:30.834Z,101536.73
2023-12-27T04:08:06.532Z,101535.84
2023-12-27T04:08:40.022Z,101532.86
2023-12-27T04:09:13.973Z,101533.04
2023-12-27T04:09:49.165Z,101531.65
2023-12-27T04:10:27.030Z,101529.69
2023-12-27T04:11:01.341Z,101529.02
2023-12-27T04:11:36.896Z,101527.07
2023-12-27T04:12:12.240Z,101524.05
2023-12-27T04:12:45.823Z,101525.11
2023-12-27T04:13:19.894Z,101529.19
2023-12-27T04:13:53.307Z,101525.64
2023-12-27T04:14:44.229Z,101524.41
2023-12-27T04:15:23.110Z,101528.50
2023-12-27T04:16:01.556Z,101530.77
2023-12-27T04:16:37.547Z,101528.84
2023-12-27T04:17:11.399Z,101532.74
2023-12-27T04:17:44.916Z,101535.74
2023-12-27T04:18:18.384Z,101532.91
2023-12-27T04:18:52.326Z,101534.37
2023-12-27T04:19:26.169Z,101537.05
2023-12-27T04:19:59.631Z,101531.91
2023-12-27T04:20:35.323Z,101530.34
2023-12-27T04:21:10.712Z,101531.40
2023-12-27T04:21:53.261Z,101529.29
2023-12-27T04:22:29.121Z,101529.63
2023-12-27T04:23:02.650Z,101525.90
2023-12-27T04:23:40.497Z,101523.59
2023-12-27T04:24:16.057Z,101528.02
2023-12-27T04:24:49.598Z,101524.98
2023-12-27T04:25:24.108Z,101522.14
2023-12-27T04:25:57.917Z,101526.40
2023-12-27T04:26:31.508Z,101523.75
2023-12-27T04:27:06.449Z,101520.38
2023-12-27T04:27:43.810Z,101519.48
2023-12-27T04:28:17.135Z,101520.04
2023-12-27T04:28:53.200Z,101518.10
2023-12-27T04:29:26.676Z,101518.99
2023-12-27T04:30:04.911Z,101517.23
2023-12-27T04:30:38.899Z,101517.23
2023-12-27T04:31:15.381Z,101516.36
2023-12-27T04:31:48.787Z,101514.23
2023-12-27T04:32:24.657Z,101515.64
2023-12-27T04:32:59.930Z,101515.30
2023-12-27T04:33:33.582Z,101513.86
2023-12-27T04:34:08.493Z,101513.33
2023-12-27T04:34:43.518Z,101512.61
2023-12-27T04:35:16.946Z,101504.98
2023-12-27T04:35:55.558Z,101508.72
2023-12-27T04:36:30.149Z,101508.90
2023-12-27T04:37:05.136Z,101510.86
2023-12-27T04:37:39.925Z,101507.13
2023-12-27T04:38:20.020Z,101508.72
2023-12-27T04:38:55.831Z,101509.96
2023-12-27T04:39:31.160Z,101510.48
2023-12-27T04:40:10.110Z,101513.52
2023-12-27T04:40:49.892Z,101510.48
2023-12-27T04:41:23.322Z,101513.12
2023-12-27T04:41:57.111Z,101507.94
2023-12-27T04:42:35.370Z,101509.90
2023-12-27T04:43:11.383Z,101515.54
2023-12-27T04:43:45.097Z,101514.09
2023-12-27T04:44:21.549Z,101511.60
2023-12-27T04:44:56.290Z,101514.25
2023-12-27T04:45:30.305Z,101509.98
2023-12-27T04:46:04.973Z,101511.20
2023-12-27T04:46:41.327Z,101510.48
2023-12-27T04:47:15.280Z,101508.34
2023-12-27T04:47:50.563Z,101506.40
2023-12-27T04:48:29.182Z,101505.35
2023-12-27T04:49:06.320Z,101507.30
2023-12-27T04:49:40.152Z,101503.23
2023-12-27T04:50:14.278Z,101506.79
2023-12-27T04:50:59.944Z,101502.19
2023-12-27T04:51:33.379Z,101499.00
2023-12-27T04:52:16.112Z,101499.53
2023-12-27T04:52:50.236Z,101492.44
2023-12-27T04:53:23.677Z,101498.27
2023-12-27T04:53:59.375Z,101494.40
2023-12-27T04:54:33.182Z,101498.48
2023-12-27T04:55:10.583Z,101493.34
2023-12-27T04:55:44.043Z,101490.50
2023-12-27T04:56:18.603Z,101489.45
2023-12-27T04:56:56.552Z,101487.67
2023-12-27T04:57:32.781Z,101485.91
2023-12-27T04:58:06.278Z,101484.14
2023-12-27T04:58:41.565Z,101485.58
2023-12-27T04:59:16.016Z,101480.80
2023-12-27T04:59:49.790Z,101481.51
2023-12-27T05:00:24.516Z,101482.02
2023-12-27T05:01:00.873Z,101487.34
2023-12-27T05:01:37.349Z,101485.36
2023-12-27T05:02:10.700Z,101485.15
2023-12-27T05:02:44.119Z,101493.69
2023-12-27T05:03:17.425Z,101491.38
2023-12-27T05:03:51.985Z,101492.79
2023-12-27T05:04:25.733Z,101493.49
2023-12-27T05:05:02.117Z,101496.48
2023-12-27T05:05:35.466Z,101494.71
2023-12-27T05:06:09.800Z,101488.69
2023-12-27T05:06:43.894Z,101492.96
2023-12-27T05:07:17.323Z,101489.77
2023-12-27T05:07:51.288Z,101482.51
2023-12-27T05:08:34.169Z,101477.56
2023-12-27T05:09:09.545Z,101478.65
2023-12-27T05:09:42.973Z,101473.67
2023-12-27T05:10:19.736Z,101470.30
2023-12-27T05:10:55.534Z,101467.85
2023-12-27T05:11:32.300Z,101469.07
2023-12-27T05:12:07.109Z,101468.18
2023-12-27T05:12:42.914Z,101473.34
2023-12-27T05:13:19.903Z,101470.48
2023-12-27T05:14:01.699Z,101468.89
2023-12-27T05:14:37.467Z,101468.53
2023-12-27T05:15:13.936Z,101471.21
2023-12-27T05:15:51.645Z,101469.80
2023-12-27T05:16:26.744Z,101462.89
2023-12-27T05:17:00.049Z,101465.91
2023-12-27T05:17:36.679Z,101467.88
2023-12-27T05:18:13.003Z,101463.78
2023-12-27T05:18:46.930Z,101462.05
2023-12-27T05:19:20.676Z,101459.74
2023-12-27T05:19:54.049Z,101460.81
2023-12-27T05:20:29.733Z,101455.69
2023-12-27T05:21:03.163Z,101462.41
2023-12-27T05:21:39.142Z,101458.69
2023-12-27T05:22:18.903Z,101461.49
2023-12-27T05:22:52.408Z,101463.44
2023-12-27T05:23:25.717Z,101464.30
2023-12-27T05:23:59.247Z,101459.85
2023-12-27T05:24:37.251Z,101460.21
2023-12-27T05:25:10.807Z,101460.04
2023-12-27T05:25:44.280Z,101459.33
2023-12-27T05:26:19.796Z,101456.85
2023-12-27T05:26:55.871Z,101452.77
2023-12-27T05:27:37.056Z,101453.13
2023-12-27T05:28:14.687Z,101454.40
2023-12-27T05:28:47.973Z,101455.11
2023-12-27T05:29:21.411Z,101452.81
2023-12-27T05:30:00.154Z,101446.27
2023-12-27T05:30:36.367Z,101441.14
2023-12-27T05:31:13.298Z,101445.92
2023-12-27T05:31:52.357Z,101450.56
2023-12-27T05:32:26.480Z,101447.39
2023-12-27T05:33:00.337Z,101446.33
2023-12-27T05:33:36.310Z,101449.89
2023-12-27T05:34:10.245Z,101450.08
2023-12-27T05:34:46.881Z,101452.92
2023-12-27T05:35:20.237Z,101451.67
2023-12-27T05:35:57.876Z,101452.74
2023-12-27T05:36:36.985Z,101449.90
2023-12-27T05:37:13.164Z,101452.56
2023-12-27T05:37:46.542Z,101450.61
2023-12-27T05:38:21.714Z,101453.81
2023-12-27T05:38:57.484Z,101448.48
2023-12-27T05:39:33.112Z,101446.88
2023-12-27T05:40:08.377Z,101442.10
2023-12-27T05:41:02.037Z,101444.23
2023-12-27T05:41:35.563Z,101446.36
2023-12-27T05:42:11.261Z,101444.23
2023-12-27T05:42:44.970Z,101444.58
2023-12-27T05:43:23.412Z,101441.73
2023-12-27T05:43:57.162Z,101445.29
2023-12-27T05:44:32.933Z,101439.09
2023-12-27T05:45:07.799Z,101445.29
2023-12-27T05:45:41.462Z,101435.92
2023-12-27T05:46:15.066Z,101437.34
2023-12-27T05:46:51.041Z,101438.59
2023-12-27T05:47:26.493Z,101435.59
2023-12-27T05:48:00.159Z,101438.08
2023-12-27T05:48:35.287Z,101440.23
2023-12-27T05:49:09.181Z,101437.24
2023-12-27T05:49:47.844Z,101437.42
2023-12-27T05:50:29.112Z,101440.27
2023-12-27T05:51:02.380Z,101433.34
2023-12-27T05:51:35.937Z,101432.44
2023-12-27T05:52:10.701Z,101430.46
2023-12-27T05:52:44.220Z,101431.88
2023-12-27T05:53:17.964Z,101426.53
2023-12-27T05:53:53.860Z,101429.17
2023-12-27T05:54:28.099Z,101430.59
2023-12-27T05:55:02.941Z,101427.02
2023-12-27T05:55:36.310Z,101426.83
2023-12-27T05:56:14.868Z,101432.32
2023-12-27T05:56:48.218Z,101431.77
2023-12-27T05:57:21.764Z,101428.04
2023-12-27T05:57:55.606Z,101423.80
2023-12-27T05:58:34.355Z,101422.73
2023-12-27T05:59:08.344Z,101423.98
2023-12-27T05:59:44.723Z,101418.82
2023-12-27T06:00:27.350Z,101419.20
2023-12-27T06:01:00.915Z,101413.52
2023-12-27T06:01:34.536Z,101415.66
2023-12-27T06:02:08.203Z,101412.10
2023-12-27T06:02:50.932Z,101417.61
2023-12-27T06:03:24.439Z,101415.14
2023-12-27T06:03:59.426Z,101420.46
2023-12-27T06:04:33.621Z,101415.68
2023-12-27T06:05:07.595Z,101415.30
2023-12-27T06:05:41.980Z,101417.25
2023-12-27T06:06:15.540Z,101413.01
2023-12-27T06:06:50.686Z,101414.95
2023-12-27T06:07:57.106Z,101411.77
2023-12-27T06:08:30.238Z,101415.66
2023-12-27T06:09:04.804Z,101424.01
2023-12-27T06:09:42.257Z,101419.03
2023-12-27T06:10:16.164Z,101415.84
2023-12-27T06:10:52.603Z,101419.94
2023-12-27T06:11:25.985Z,101412.85
2023-12-27T06:11:59.469Z,101417.46
2023-12-27T06:12:33.032Z,101418.35
2023-12-27T06:13:06.736Z,101417.65
2023-12-27T06:13:40.950Z,101418.69
2023-12-27T06:14:16.856Z,101417.29
2023-12-27T06:14:50.309Z,101411.77
2023-12-27T06:15:23.907Z,101417.30
2023-12-27T06:15:59.758Z,101419.23
2023-12-27T06:16:36.336Z,101419.23
2023-12-27T06:17:13.795Z,101415.84
2023-12-27T06:17:47.044Z,101416.02
2023-12-27T06:18:23.477Z,101415.64
2023-12-27T06:19:06.012Z,101413.31
2023-12-27T06:19:39.529Z,101410.64
2023-12-27T06:20:15.805Z,101414.70
2023-12-27T06:20:49.362Z,101409.54
2023-12-27T06:21:25.434Z,101410.24
2023-12-27T06:22:09.842Z,101412.73
2023-12-27T06:22:43.666Z,101411.29
2023-12-27T06:23:17.271Z,101413.43
2023-12-27T06:23:52.059Z,101411.48
2023-12-27T06:24:25.664Z,101407.75
2023-12-27T06:25:01.372Z,101410.59
2023-12-27T06:25:36.152Z,101410.77
2023-12-27T06:26:09.798Z,101402.08
2023-12-27T06:26:45.396Z,101407.40
2023-12-27T06:27:18.771Z,101402.80
2023-12-27T06:27:52.316Z,101408.46
2023-12-27T06:28:25.807Z,101396.21
2023-12-27T06:29:01.889Z,101398.17
2023-12-27T06:29:35.334Z,101400.14
2023-12-27T06:30:09.793Z,101394.83
2023-12-27T06:30:43.307Z,101392.85
2023-12-27T06:31:18.262Z,101393.21
2023-12-27T06:31:51.687Z,101389.50
2023-12-27T06:32:26.906Z,101384.34
2023-12-27T06:33:00.679Z,101394.99
2023-12-27T06:33:34.123Z,101389.69
2023-12-27T06:34:08.343Z,101395.19
2023-12-27T06:34:41.840Z,101391.12
2023-12-27T06:35:17.467Z,101391.13
2023-12-27T06:35:50.869Z,101396.64
2023-12-27T06:36:27.554Z,101391.85
2023-12-27T06:37:00.952Z,101388.48
2023-12-27T06:37:39.937Z,101389.70
2023-12-27T06:38:14.077Z,101385.83
2023-12-27T06:38:59.380Z,101388.82
2023-12-27T06:39:35.732Z,101384.02